Newburg, Iowa
Current Conditions -  °F | °C
As of 3:15 PM on Tuesday 21 Oct 2014 (Local Time) from KGGI Reporting Station
Clear Clear  
Wind Chill: 62°   Ceiling: Unl
Heat Index: 62°   Visibility: 10mi
Dew Point: 41°   Wind: 9mph
Humidity: 47%   Direction: 100°E
Pressure: 30.14"   Gusts: NA
Location:  41.7319°N, 92.7662°W
Report Text: KGGI 212015Z AUTO 10008KT 10SM CLR 17/05 A3014 RMK AO2 T01650052
Loading
Personal Weather Stations






























Interactive Weather Map
Tropical Storm Tracking
New forecast layout! Learn more

10-Day Weather Forecast

Advertisements
Track Severe Weather on mobile